createdAt,value
2019-04-19T00:01:01.381Z,13.30
2019-04-19T00:02:02.422Z,15.60
2019-04-19T00:02:56.154Z,13.00
2019-04-19T00:03:57.303Z,13.80
2019-04-19T00:04:59.855Z,13.60
2019-04-19T00:05:56.046Z,13.40
2019-04-19T00:07:05.606Z,14.40
2019-04-19T00:08:16.717Z,15.10
2019-04-19T00:09:12.873Z,14.60
2019-04-19T00:10:03.518Z,13.60
2019-04-19T00:11:09.395Z,14.30
2019-04-19T00:12:09.201Z,14.10
2019-04-19T00:12:59.806Z,13.30
2019-04-19T00:13:55.742Z,13.80
2019-04-19T00:14:55.490Z,14.10
2019-04-19T00:15:56.070Z,13.80
2019-04-19T00:16:55.611Z,14.80
2019-04-19T00:18:00.745Z,13.90
2019-04-19T00:19:22.476Z,13.40
2019-04-19T00:20:22.265Z,13.90
2019-04-19T00:21:12.504Z,13.30
2019-04-19T00:22:13.220Z,13.80
2019-04-19T00:23:09.013Z,14.10
2019-04-19T00:23:57.843Z,13.10
2019-04-19T00:24:56.398Z,13.80
2019-04-19T00:25:55.738Z,13.70
2019-04-19T00:26:55.326Z,14.00
2019-04-19T00:27:59.393Z,13.90
2019-04-19T00:29:01.010Z,13.40
2019-04-19T00:30:02.233Z,14.30
2019-04-19T00:31:11.945Z,13.50
2019-04-19T00:32:11.794Z,12.60
2019-04-19T00:33:09.080Z,13.80
2019-04-19T00:33:58.025Z,13.60
2019-04-19T00:34:55.202Z,13.70
2019-04-19T00:35:55.899Z,13.10
2019-04-19T00:36:55.412Z,13.70
2019-04-19T00:38:05.414Z,14.30
2019-04-19T00:39:15.390Z,14.00
2019-04-19T00:40:18.217Z,13.90
2019-04-19T00:41:14.095Z,13.90
2019-04-19T00:42:15.356Z,13.50
2019-04-19T00:43:10.302Z,14.00
2019-04-19T00:44:08.963Z,13.50
2019-04-19T00:45:17.484Z,14.90
2019-04-19T00:46:09.236Z,13.80
2019-04-19T00:47:13.178Z,14.70
2019-04-19T00:48:07.823Z,13.50
2019-04-19T00:49:09.113Z,13.70
2019-04-19T00:50:07.447Z,14.80
2019-04-19T00:51:08.131Z,13.70
2019-04-19T00:52:05.318Z,13.90
2019-04-19T00:53:08.837Z,13.80
2019-04-19T00:54:06.321Z,14.30
2019-04-19T00:55:04.320Z,13.60
2019-04-19T00:56:05.801Z,14.00
2019-04-19T00:57:02.376Z,14.20
2019-04-19T00:58:06.151Z,14.50
2019-04-19T00:59:00.998Z,14.10
2019-04-19T00:59:56.487Z,13.80
2019-04-19T01:00:57.953Z,14.70
2019-04-19T01:02:00.817Z,16.70
2019-04-19T01:02:57.701Z,14.60
2019-04-19T01:03:55.636Z,14.00
2019-04-19T01:05:01.191Z,16.00
2019-04-19T01:06:02.057Z,14.50
2019-04-19T01:06:58.832Z,14.10
2019-04-19T01:07:55.730Z,14.30
2019-04-19T01:09:11.896Z,13.80
2019-04-19T01:10:09.854Z,14.00
2019-04-19T01:11:08.045Z,14.50
2019-04-19T01:12:10.317Z,15.10
2019-04-19T01:13:09.917Z,15.00
2019-04-19T01:14:07.307Z,14.40
2019-04-19T01:15:05.806Z,13.60
2019-04-19T01:16:05.937Z,13.70
2019-04-19T01:17:15.270Z,14.80
2019-04-19T01:18:11.836Z,14.10
2019-04-19T01:19:03.447Z,14.50
2019-04-19T01:20:01.189Z,14.30
2019-04-19T01:20:54.520Z,14.40
2019-04-19T01:21:55.368Z,14.00
2019-04-19T01:23:01.052Z,13.50
2019-04-19T01:23:58.715Z,13.20
2019-04-19T01:24:54.618Z,14.00
2019-04-19T01:26:02.971Z,16.00
2019-04-19T01:26:56.327Z,13.80
2019-04-19T01:27:58.395Z,13.90
2019-04-19T01:29:01.694Z,13.30
2019-04-19T01:29:57.506Z,13.40
2019-04-19T01:30:54.958Z,14.00
2019-04-19T01:32:00.548Z,14.00
2019-04-19T01:32:59.038Z,14.10
2019-04-19T01:33:54.676Z,15.00
2019-04-19T01:35:00.979Z,13.90
2019-04-19T01:35:57.072Z,13.60
2019-04-19T01:36:54.798Z,14.30
2019-04-19T01:37:59.516Z,14.10
2019-04-19T01:39:13.182Z,14.90
2019-04-19T01:40:12.246Z,13.80
2019-04-19T01:41:15.777Z,13.90
2019-04-19T01:42:04.774Z,14.10
2019-04-19T01:43:15.035Z,13.80
2019-04-19T01:44:15.872Z,14.40
2019-04-19T01:45:09.954Z,13.60
2019-04-19T01:46:12.017Z,14.30
2019-04-19T01:47:07.342Z,15.20
2019-04-19T01:48:06.110Z,15.00
2019-04-19T01:49:06.268Z,13.20
2019-04-19T01:50:05.522Z,13.30
2019-04-19T01:51:08.650Z,14.50
2019-04-19T01:52:13.253Z,13.70
2019-04-19T01:53:14.801Z,13.90
2019-04-19T01:54:09.951Z,13.90
2019-04-19T01:55:05.900Z,13.80
2019-04-19T01:56:03.836Z,14.00
2019-04-19T01:56:58.284Z,13.80
2019-04-19T01:58:00.130Z,14.10
2019-04-19T01:58:57.606Z,14.90
2019-04-19T01:59:57.132Z,15.00
2019-04-19T02:00:57.346Z,14.70
2019-04-19T02:02:01.832Z,14.40
2019-04-19T02:02:57.683Z,14.50
2019-04-19T02:03:54.533Z,15.10
2019-04-19T02:05:00.771Z,14.20
2019-04-19T02:06:01.180Z,14.40
2019-04-19T02:06:54.749Z,13.80
2019-04-19T02:07:57.976Z,14.50
2019-04-19T02:08:56.315Z,14.80
2019-04-19T02:10:08.974Z,14.80
2019-04-19T02:11:02.701Z,14.10
2019-04-19T02:12:04.668Z,15.00
2019-04-19T02:13:05.042Z,14.80
2019-04-19T02:14:05.944Z,14.70
2019-04-19T02:15:01.055Z,15.20
2019-04-19T02:15:55.681Z,14.80
2019-04-19T02:17:00.122Z,16.20
2019-04-19T02:17:54.377Z,14.20
2019-04-19T02:19:00.638Z,14.20
2019-04-19T02:19:58.943Z,16.80
2019-04-19T02:20:54.563Z,13.70
2019-04-19T02:21:55.243Z,13.70
2019-04-19T02:22:58.856Z,14.30
2019-04-19T02:23:57.317Z,14.40
2019-04-19T02:24:55.949Z,14.80
2019-04-19T02:26:00.545Z,14.70
2019-04-19T02:26:59.367Z,14.70
2019-04-19T02:27:54.524Z,14.40
2019-04-19T02:28:55.697Z,14.50
2019-04-19T02:30:03.138Z,14.00
2019-04-19T02:31:12.437Z,14.50
2019-04-19T02:33:15.175Z,14.40
2019-04-19T02:35:29.380Z,14.70
2019-04-19T02:36:30.731Z,14.60
2019-04-19T02:37:19.648Z,14.30
2019-04-19T02:38:26.864Z,14.80
2019-04-19T02:39:21.282Z,15.60
2019-04-19T02:40:39.162Z,15.10
2019-04-19T02:41:24.734Z,14.90
2019-04-19T02:42:34.200Z,14.20
2019-04-19T02:43:24.337Z,14.50
2019-04-19T02:44:17.737Z,14.30
2019-04-19T02:45:17.481Z,15.70
2019-04-19T02:47:34.329Z,15.00
2019-04-19T02:48:26.345Z,15.10
2019-04-19T02:49:28.352Z,14.50
2019-04-19T02:50:23.739Z,14.50
2019-04-19T02:52:27.403Z,15.60
2019-04-19T02:54:30.898Z,14.60
2019-04-19T02:55:14.448Z,15.40
2019-04-19T02:56:31.574Z,16.00
2019-04-19T02:57:29.358Z,14.90
2019-04-19T02:58:33.913Z,14.90
2019-04-19T02:59:37.200Z,17.60
2019-04-19T03:00:32.527Z,16.00
2019-04-19T03:01:30.439Z,14.30
2019-04-19T03:02:38.225Z,15.80
2019-04-19T03:03:21.499Z,15.40
2019-04-19T03:04:37.730Z,14.60
2019-04-19T03:06:09.052Z,15.20
2019-04-19T03:06:56.223Z,17.20
2019-04-19T03:07:53.818Z,17.40
2019-04-19T03:08:52.849Z,15.50
2019-04-19T03:09:53.696Z,15.50
2019-04-19T03:11:07.525Z,15.80
2019-04-19T03:12:07.716Z,15.00
2019-04-19T03:13:08.300Z,15.60
2019-04-19T03:14:09.302Z,16.80
2019-04-19T03:15:08.207Z,16.70
2019-04-19T03:16:11.798Z,14.90
2019-04-19T03:17:11.336Z,15.00
2019-04-19T03:18:18.290Z,15.00
2019-04-19T03:19:06.087Z,15.00
2019-04-19T03:20:05.626Z,15.30
2019-04-19T03:21:02.254Z,16.20
2019-04-19T03:22:13.385Z,16.60
2019-04-19T03:23:08.260Z,15.90
2019-04-19T03:24:05.925Z,15.10
2019-04-19T03:25:10.833Z,15.70
2019-04-19T03:26:04.730Z,14.50
2019-04-19T03:27:04.648Z,14.30
2019-04-19T03:28:03.318Z,16.10
2019-04-19T03:28:56.789Z,15.80
2019-04-19T03:30:09.441Z,15.70
2019-04-19T03:31:23.514Z,15.10
2019-04-19T03:32:49.171Z,15.20
2019-04-19T03:33:35.592Z,16.20
2019-04-19T03:35:07.277Z,15.10
2019-04-19T03:36:12.456Z,15.60
2019-04-19T03:37:06.583Z,15.70
2019-04-19T03:38:12.892Z,16.20
2019-04-19T03:39:18.157Z,15.50
2019-04-19T03:40:20.393Z,15.40
2019-04-19T03:41:09.272Z,16.60
2019-04-19T03:42:12.728Z,15.90
2019-04-19T03:43:10.578Z,15.70
2019-04-19T03:44:09.877Z,14.90
2019-04-19T03:45:21.959Z,16.00
2019-04-19T03:46:12.620Z,15.10
2019-04-19T03:47:09.207Z,15.20
2019-04-19T03:48:15.669Z,15.70
2019-04-19T03:49:19.442Z,15.70
2019-04-19T03:50:11.964Z,15.60
2019-04-19T03:51:13.875Z,15.60
2019-04-19T03:52:17.488Z,15.90
2019-04-19T03:53:15.465Z,15.60
2019-04-19T03:54:13.051Z,15.90
2019-04-19T03:55:15.680Z,15.40
2019-04-19T03:56:20.968Z,16.60
2019-04-19T03:57:04.682Z,15.90
2019-04-19T03:58:01.821Z,17.80
2019-04-19T03:58:53.966Z,15.70
2019-04-19T03:59:52.366Z,15.80
2019-04-19T04:00:52.063Z,15.00
2019-04-19T04:01:55.146Z,15.70
2019-04-19T04:02:53.188Z,15.80
2019-04-19T04:03:56.613Z,16.30
2019-04-19T04:04:59.452Z,15.80
2019-04-19T04:05:54.602Z,15.40
2019-04-19T04:06:52.623Z,18.90
2019-04-19T04:07:58.105Z,16.20
2019-04-19T04:08:58.223Z,15.10
2019-04-19T04:09:55.877Z,15.60
2019-04-19T04:10:52.136Z,15.40
2019-04-19T04:12:02.278Z,15.90
2019-04-19T04:13:02.037Z,16.00
2019-04-19T04:14:07.494Z,17.80
2019-04-19T04:15:04.938Z,15.50
2019-04-19T04:16:05.701Z,16.20
2019-04-19T04:16:53.797Z,16.90
2019-04-19T04:17:52.199Z,17.80
2019-04-19T04:18:51.722Z,14.80
2019-04-19T04:19:52.532Z,16.70
2019-04-19T04:20:54.401Z,15.60
2019-04-19T04:21:54.046Z,16.70
2019-04-19T04:22:56.499Z,15.50
2019-04-19T04:24:07.082Z,16.30
2019-04-19T04:24:58.562Z,15.70
2019-04-19T04:25:59.131Z,15.90
2019-04-19T04:27:03.078Z,15.00
2019-04-19T04:28:01.662Z,16.60
2019-04-19T04:29:04.463Z,16.00
2019-04-19T04:30:04.865Z,17.70
2019-04-19T04:31:03.170Z,15.90
2019-04-19T04:32:01.507Z,16.10
2019-04-19T04:33:04.672Z,16.50
2019-04-19T04:34:02.804Z,16.40
2019-04-19T04:35:08.423Z,15.60
2019-04-19T04:36:13.093Z,16.30
2019-04-19T04:37:09.907Z,15.80
2019-04-19T04:38:02.773Z,16.60
2019-04-19T04:38:52.913Z,16.50
2019-04-19T04:39:51.499Z,15.90
2019-04-19T04:40:52.726Z,16.50
2019-04-19T04:42:05.674Z,16.10
2019-04-19T04:43:03.881Z,16.80
2019-04-19T04:44:10.175Z,16.10
2019-04-19T04:45:19.023Z,16.40
2019-04-19T04:46:16.831Z,16.80
2019-04-19T04:47:12.000Z,17.10
2019-04-19T04:48:05.364Z,16.60
2019-04-19T04:49:13.675Z,16.10
2019-04-19T04:50:12.537Z,17.30
2019-04-19T04:51:13.467Z,16.50
2019-04-19T04:52:03.798Z,17.00
2019-04-19T04:52:52.741Z,16.20
2019-04-19T04:53:51.254Z,17.20
2019-04-19T04:54:52.331Z,17.10
2019-04-19T04:55:57.935Z,16.60
2019-04-19T04:57:02.426Z,16.60
2019-04-19T04:57:57.045Z,16.80
2019-04-19T04:58:52.351Z,17.00
2019-04-19T04:59:55.214Z,17.30
2019-04-19T05:00:58.907Z,17.10
2019-04-19T05:01:58.668Z,17.30
2019-04-19T05:03:04.732Z,17.50
2019-04-19T05:04:08.656Z,16.90
2019-04-19T05:05:10.442Z,17.60
2019-04-19T05:06:14.954Z,17.30
2019-04-19T05:07:10.261Z,17.60
2019-04-19T05:08:14.228Z,17.60
2019-04-19T05:09:11.325Z,17.10
2019-04-19T05:10:09.401Z,17.40
2019-04-19T05:11:11.888Z,17.30
2019-04-19T05:12:12.862Z,17.80
2019-04-19T05:14:13.968Z,17.40
2019-04-19T05:15:05.714Z,17.20
2019-04-19T05:16:18.291Z,17.00
2019-04-19T05:17:29.964Z,17.40
2019-04-19T05:18:17.331Z,17.20
2019-04-19T05:19:04.056Z,17.80
2019-04-19T05:20:12.128Z,16.60
2019-04-19T05:21:02.541Z,18.10
2019-04-19T05:22:05.627Z,16.20
2019-04-19T05:23:08.232Z,17.10
2019-04-19T05:24:13.848Z,17.20
2019-04-19T05:25:21.981Z,17.10
2019-04-19T05:26:25.302Z,16.20
2019-04-19T05:28:15.021Z,16.60
2019-04-19T05:29:08.544Z,16.00
2019-04-19T05:29:53.346Z,16.60
2019-04-19T05:30:57.262Z,16.20
2019-04-19T05:31:54.727Z,15.80
2019-04-19T05:33:02.763Z,16.50
2019-04-19T05:34:11.198Z,16.50
2019-04-19T05:35:06.911Z,17.10
2019-04-19T05:36:11.168Z,16.70
2019-04-19T05:37:10.854Z,16.20
2019-04-19T05:38:07.517Z,16.40
2019-04-19T05:39:23.555Z,15.70
2019-04-19T05:40:09.469Z,16.20
2019-04-19T05:41:02.543Z,15.80
2019-04-19T05:42:06.235Z,15.90
2019-04-19T05:43:06.458Z,15.30
2019-04-19T05:44:23.469Z,16.20
2019-04-19T05:45:26.111Z,15.60
2019-04-19T05:46:17.857Z,15.10
2019-04-19T05:47:10.247Z,16.70
2019-04-19T05:47:59.582Z,15.80
2019-04-19T05:49:06.429Z,16.10
2019-04-19T05:50:13.978Z,15.20
2019-04-19T05:51:16.578Z,15.70
2019-04-19T05:52:08.157Z,14.90
2019-04-19T05:53:04.011Z,16.10
2019-04-19T05:53:53.743Z,15.00
2019-04-19T05:54:51.428Z,15.70
2019-04-19T05:55:50.122Z,15.90
2019-04-19T05:56:55.032Z,15.90
2019-04-19T05:58:05.780Z,16.30
2019-04-19T05:59:01.430Z,15.20
2019-04-19T05:59:59.770Z,15.40
2019-04-19T06:01:04.665Z,14.70
2019-04-19T06:02:05.448Z,16.00
2019-04-19T06:03:02.946Z,15.50
2019-04-19T06:04:07.410Z,15.60
2019-04-19T06:05:14.955Z,15.30
2019-04-19T06:06:16.937Z,15.00
2019-04-19T06:07:09.534Z,15.70
2019-04-19T06:08:04.246Z,15.80
2019-04-19T06:08:49.989Z,15.50
2019-04-19T06:09:49.891Z,15.70
2019-04-19T06:10:56.282Z,15.80
2019-04-19T06:11:51.281Z,15.80
2019-04-19T06:12:58.011Z,15.20
2019-04-19T06:14:12.492Z,14.70
2019-04-19T06:15:13.698Z,15.10
2019-04-19T06:16:11.377Z,14.90
2019-04-19T06:17:01.527Z,14.90
2019-04-19T06:18:05.261Z,14.60
2019-04-19T06:19:11.373Z,15.60
2019-04-19T06:20:08.527Z,14.70
2019-04-19T06:21:12.464Z,14.40
2019-04-19T06:22:04.655Z,14.50
2019-04-19T06:23:07.129Z,14.50
2019-04-19T06:24:13.358Z,15.20
2019-04-19T06:25:06.393Z,14.50
2019-04-19T06:27:13.187Z,14.30
2019-04-19T06:29:10.690Z,14.70
2019-04-19T06:30:15.209Z,12.50
2019-04-19T06:31:12.536Z,14.40
2019-04-19T06:32:07.403Z,14.00
2019-04-19T06:33:15.637Z,13.90
2019-04-19T06:34:10.259Z,15.00
2019-04-19T06:35:01.462Z,14.00
2019-04-19T06:35:55.508Z,18.80
2019-04-19T06:36:58.603Z,14.00
2019-04-19T06:37:50.292Z,14.80
2019-04-19T06:38:50.602Z,13.70
2019-04-19T06:39:53.600Z,13.30
2019-04-19T06:40:57.896Z,14.70
2019-04-19T06:41:55.757Z,14.20
2019-04-19T06:42:58.042Z,14.10
2019-04-19T06:44:01.425Z,12.90
2019-04-19T06:45:07.703Z,14.80
2019-04-19T06:46:07.020Z,14.00
2019-04-19T06:47:00.622Z,15.20
2019-04-19T06:47:57.925Z,14.30
2019-04-19T06:48:57.688Z,14.20
2019-04-19T06:49:52.484Z,14.10
2019-04-19T06:50:54.141Z,14.70
2019-04-19T06:51:58.555Z,13.20
2019-04-19T06:52:49.234Z,14.30
2019-04-19T06:53:56.628Z,14.30
2019-04-19T06:54:49.792Z,14.30
2019-04-19T06:55:53.012Z,13.40
2019-04-19T06:57:00.704Z,15.90
2019-04-19T06:57:59.028Z,13.90
2019-04-19T06:58:57.678Z,13.60
2019-04-19T07:00:03.402Z,14.10
2019-04-19T07:01:04.430Z,12.90
2019-04-19T07:01:52.949Z,13.90
2019-04-19T07:02:49.738Z,13.80
2019-04-19T07:03:49.518Z,13.70
2019-04-19T07:05:01.637Z,14.00
2019-04-19T07:06:06.385Z,13.80
2019-04-19T07:07:10.585Z,14.30
2019-04-19T07:08:18.177Z,13.10
2019-04-19T07:09:14.035Z,15.60
2019-04-19T07:10:16.765Z,13.60
2019-04-19T07:11:11.632Z,13.90
2019-04-19T07:12:11.975Z,16.80
2019-04-19T07:13:08.955Z,13.40
2019-04-19T07:13:58.400Z,13.30
2019-04-19T07:15:06.639Z,13.50
2019-04-19T07:16:15.903Z,13.80
2019-04-19T07:17:07.266Z,13.70
2019-04-19T07:18:05.202Z,15.70
2019-04-19T07:19:08.018Z,13.10
2019-04-19T07:20:06.486Z,12.90
2019-04-19T07:21:11.863Z,12.50
2019-04-19T07:22:06.241Z,15.20
2019-04-19T07:23:02.595Z,14.30
2019-04-19T07:24:07.882Z,15.20
2019-04-19T07:25:13.298Z,21.20
2019-04-19T07:26:09.956Z,13.60
2019-04-19T07:27:05.949Z,13.90
2019-04-19T07:27:58.570Z,13.50
2019-04-19T07:28:49.378Z,15.00
2019-04-19T07:29:50.164Z,13.50
2019-04-19T07:30:55.420Z,14.60
2019-04-19T07:31:49.154Z,14.30
2019-04-19T07:32:55.691Z,13.30
2019-04-19T07:33:57.260Z,14.30
2019-04-19T07:35:03.578Z,13.50
2019-04-19T07:36:07.827Z,14.30
2019-04-19T07:37:09.143Z,13.40
2019-04-19T07:38:18.288Z,13.90
2019-04-19T07:39:11.662Z,13.60
2019-04-19T07:40:15.991Z,13.70
2019-04-19T07:41:08.757Z,15.00
2019-04-19T07:42:13.682Z,14.10
2019-04-19T07:43:06.161Z,14.00
2019-04-19T07:43:59.014Z,14.20
2019-04-19T07:44:55.944Z,13.90
2019-04-19T07:46:10.680Z,13.20
2019-04-19T07:47:05.511Z,14.30
2019-04-19T07:47:57.911Z,13.90
2019-04-19T07:48:49.341Z,14.10
2019-04-19T07:50:00.570Z,13.30
2019-04-19T07:50:56.909Z,14.30
2019-04-19T07:51:57.055Z,15.30
2019-04-19T07:52:56.474Z,13.00
2019-04-19T07:53:50.914Z,13.40
2019-04-19T07:54:55.320Z,14.50
2019-04-19T07:56:02.024Z,13.50
2019-04-19T07:57:06.612Z,14.20
2019-04-19T07:58:27.784Z,13.70
2019-04-19T07:59:21.608Z,13.60
2019-04-19T08:01:17.563Z,13.80
2019-04-19T08:02:13.054Z,14.20
2019-04-19T08:03:17.229Z,15.20
2019-04-19T08:04:24.346Z,14.90
2019-04-19T08:05:15.806Z,26.30
2019-04-19T08:06:36.321Z,14.10
2019-04-19T08:07:24.063Z,13.50
2019-04-19T08:13:28.255Z,14.00
2019-04-19T08:15:27.829Z,13.70
2019-04-19T08:16:44.976Z,13.70
2019-04-19T08:27:22.841Z,13.00
2019-04-19T08:27:58.622Z,13.70
2019-04-19T08:28:56.220Z,13.10
2019-04-19T08:29:56.048Z,14.60
2019-04-19T08:30:53.975Z,12.70
2019-04-19T08:31:48.970Z,13.20
2019-04-19T08:32:47.840Z,12.60
2019-04-19T08:33:48.847Z,14.20
2019-04-19T08:34:57.635Z,12.40
2019-04-19T08:35:50.596Z,13.00
2019-04-19T08:36:53.167Z,12.50
2019-04-19T08:37:48.944Z,13.30
2019-04-19T08:39:06.991Z,12.90
2019-04-19T08:40:02.807Z,12.60
2019-04-19T08:41:02.313Z,12.60
2019-04-19T08:42:12.040Z,13.00
2019-04-19T08:43:07.520Z,12.20
2019-04-19T08:44:05.117Z,12.10
2019-04-19T08:44:57.606Z,12.30
2019-04-19T08:45:48.619Z,12.70
2019-04-19T08:46:47.666Z,12.80
2019-04-19T08:47:59.223Z,11.90
2019-04-19T08:48:54.255Z,12.70
2019-04-19T08:49:49.760Z,12.70
2019-04-19T08:50:51.916Z,13.00
2019-04-19T08:51:48.720Z,12.70
2019-04-19T08:52:54.508Z,13.90
2019-04-19T08:54:03.329Z,12.60
2019-04-19T08:55:09.959Z,12.20
2019-04-19T08:56:05.301Z,13.00
2019-04-19T08:56:54.503Z,12.00
2019-04-19T08:57:53.571Z,12.00
2019-04-19T08:59:00.495Z,11.80
2019-04-19T09:00:12.186Z,11.30
2019-04-19T09:01:09.795Z,12.80
2019-04-19T09:02:07.298Z,12.30
2019-04-19T09:03:01.366Z,12.20
2019-04-19T09:04:10.100Z,12.50
2019-04-19T09:05:04.716Z,12.50
2019-04-19T09:06:49.712Z,12.50
2019-04-19T09:08:05.091Z,12.40
2019-04-19T09:09:03.696Z,11.60
2019-04-19T09:10:22.441Z,12.50
2019-04-19T09:11:05.591Z,11.20
2019-04-19T09:12:09.475Z,12.20
2019-04-19T09:13:18.401Z,12.20
2019-04-19T09:14:06.988Z,11.30
2019-04-19T09:15:06.516Z,12.30
2019-04-19T09:16:06.823Z,12.00
2019-04-19T09:17:14.658Z,11.60
2019-04-19T09:18:25.043Z,12.10
2019-04-19T09:19:12.287Z,12.10
2019-04-19T09:20:24.766Z,12.40
2019-04-19T09:21:04.049Z,10.50
2019-04-19T09:22:03.977Z,11.10
2019-04-19T09:23:00.077Z,11.30
2019-04-19T09:23:55.178Z,10.20
2019-04-19T09:24:55.021Z,10.70
2019-04-19T09:26:01.120Z,9.90
2019-04-19T09:27:01.293Z,10.70
2019-04-19T09:28:13.946Z,9.20
2019-04-19T09:29:12.438Z,10.60
2019-04-19T09:30:07.711Z,10.50
2019-04-19T09:31:04.878Z,10.60
2019-04-19T09:31:56.894Z,11.60
2019-04-19T09:32:48.372Z,10.60
2019-04-19T09:33:52.508Z,12.20
2019-04-19T09:34:55.366Z,10.60
2019-04-19T09:35:57.112Z,10.40
2019-04-19T09:36:58.233Z,9.60
2019-04-19T09:38:01.532Z,10.20
2019-04-19T09:39:06.240Z,10.50
2019-04-19T09:39:56.535Z,9.90
2019-04-19T09:40:55.863Z,9.80
2019-04-19T09:41:55.588Z,10.40
2019-04-19T09:42:56.495Z,8.80
2019-04-19T09:43:58.668Z,10.40
2019-04-19T09:44:50.433Z,10.70
2019-04-19T09:45:47.600Z,8.70
2019-04-19T09:46:46.984Z,10.50
2019-04-19T09:47:48.069Z,11.20
2019-04-19T09:49:05.118Z,9.20
2019-04-19T09:50:00.380Z,10.20
2019-04-19T09:51:06.282Z,8.90
2019-04-19T09:52:07.295Z,9.70
2019-04-19T09:53:10.932Z,9.30
2019-04-19T09:54:09.695Z,9.00
2019-04-19T09:55:12.562Z,9.10
2019-04-19T09:56:09.036Z,9.30
2019-04-19T09:57:01.181Z,9.20
2019-04-19T09:58:06.694Z,8.90
2019-04-19T09:58:57.670Z,8.60
2019-04-19T09:59:51.660Z,9.10
2019-04-19T10:00:50.455Z,8.60
2019-04-19T10:01:52.285Z,9.50
2019-04-19T10:02:51.822Z,8.50
2019-04-19T10:03:51.024Z,8.70
2019-04-19T10:04:47.430Z,12.10
2019-04-19T10:05:47.064Z,8.20
2019-04-19T10:06:46.954Z,7.70
2019-04-19T10:07:46.998Z,7.10
2019-04-19T10:08:47.868Z,7.50
2019-04-19T10:09:54.196Z,7.10
2019-04-19T10:10:49.048Z,7.10
2019-04-19T10:11:46.724Z,7.20
2019-04-19T10:12:47.594Z,6.40
2019-04-19T10:13:46.712Z,6.40
2019-04-19T10:14:47.812Z,8.20
2019-04-19T10:15:47.018Z,6.60
2019-04-19T10:16:46.927Z,6.90
2019-04-19T10:17:46.880Z,6.90
2019-04-19T10:18:54.551Z,6.60
2019-04-19T10:19:46.696Z,6.50
2019-04-19T10:20:47.390Z,6.60
2019-04-19T10:21:49.019Z,6.70
2019-04-19T10:22:47.083Z,8.00
2019-04-19T10:23:47.625Z,6.30
2019-04-19T10:24:47.795Z,6.20
2019-04-19T10:25:54.470Z,6.50
2019-04-19T10:26:46.579Z,6.20
2019-04-19T10:27:47.436Z,9.90
2019-04-19T10:28:46.565Z,6.60
2019-04-19T10:29:47.812Z,6.50
2019-04-19T10:30:46.539Z,6.50
2019-04-19T10:31:50.310Z,6.60
2019-04-19T10:32:46.647Z,6.70
2019-04-19T10:33:53.500Z,6.00
2019-04-19T10:34:46.505Z,6.70
2019-04-19T10:35:47.595Z,6.70
2019-04-19T10:36:49.474Z,5.90
2019-04-19T10:37:46.488Z,6.60
2019-04-19T10:38:47.620Z,5.90
2019-04-19T10:39:47.658Z,7.50
2019-04-19T10:40:46.446Z,5.60
2019-04-19T10:41:46.446Z,5.90
2019-04-19T10:42:47.584Z,5.30
2019-04-19T10:43:59.673Z,6.30
2019-04-19T10:44:47.730Z,8.40
2019-04-19T10:45:46.396Z,5.80
2019-04-19T10:46:47.378Z,5.70
2019-04-19T10:47:47.175Z,6.10
2019-04-19T10:48:58.457Z,5.60
2019-04-19T10:49:54.904Z,5.40
2019-04-19T10:50:49.801Z,5.20
2019-04-19T10:51:46.596Z,5.50
2019-04-19T10:52:46.334Z,6.00
2019-04-19T10:53:46.375Z,5.60
2019-04-19T10:54:47.520Z,5.60
2019-04-19T10:55:46.622Z,4.60
2019-04-19T10:56:46.304Z,5.20
2019-04-19T10:57:47.330Z,5.00
2019-04-19T10:58:47.149Z,4.00
2019-04-19T10:59:46.271Z,4.30
2019-04-19T11:00:47.192Z,5.00
2019-04-19T11:01:47.460Z,4.30
2019-04-19T11:02:46.341Z,5.80
2019-04-19T11:03:46.951Z,4.50
2019-04-19T11:04:46.917Z,4.70
2019-04-19T11:05:47.331Z,6.60
2019-04-19T11:06:47.450Z,4.60
2019-04-19T11:07:47.661Z,5.60
2019-04-19T11:08:46.742Z,5.00
2019-04-19T11:09:46.442Z,4.60
2019-04-19T11:10:47.475Z,4.50
2019-04-19T11:11:46.157Z,4.20
2019-04-19T11:12:46.977Z,5.00
2019-04-19T11:13:46.221Z,4.50
2019-04-19T11:14:46.255Z,4.70
2019-04-19T11:15:46.616Z,4.40
2019-04-19T11:16:47.309Z,5.00
2019-04-19T11:17:46.103Z,6.30
2019-04-19T11:18:46.208Z,5.20
2019-04-19T11:20:00.833Z,6.50
2019-04-19T11:20:49.565Z,4.20
2019-04-19T11:21:46.114Z,4.40
2019-04-19T11:22:46.118Z,5.00
2019-04-19T11:23:46.546Z,4.00
2019-04-19T11:24:46.214Z,4.50
2019-04-19T11:25:47.454Z,4.20
2019-04-19T11:26:46.022Z,4.00
2019-04-19T11:27:49.361Z,4.70
2019-04-19T11:28:47.166Z,4.10
2019-04-19T11:29:46.875Z,4.00
2019-04-19T11:30:47.153Z,4.40
2019-04-19T11:31:46.321Z,5.40
2019-04-19T11:32:46.166Z,4.50
2019-04-19T11:33:46.859Z,4.50
2019-04-19T11:34:47.175Z,6.10
2019-04-19T11:35:46.150Z,4.50
2019-04-19T11:36:46.476Z,3.90
2019-04-19T11:37:47.054Z,4.20
2019-04-19T11:38:47.124Z,4.30
2019-04-19T11:39:46.420Z,5.10
2019-04-19T11:40:47.024Z,3.80
2019-04-19T11:41:46.445Z,4.10
2019-04-19T11:42:46.221Z,3.90
2019-04-19T11:43:46.535Z,4.70
2019-04-19T11:44:46.115Z,5.50
2019-04-19T11:45:46.536Z,4.40
2019-04-19T11:46:46.294Z,4.60
2019-04-19T11:47:47.010Z,4.70
2019-04-19T11:48:46.443Z,3.80
2019-04-19T11:49:47.339Z,6.30
2019-04-19T11:50:45.810Z,4.50
2019-04-19T11:51:45.982Z,7.60
2019-04-19T11:52:46.564Z,4.10
2019-04-19T11:53:45.782Z,4.70
2019-04-19T11:54:46.432Z,5.20
2019-04-19T11:55:46.642Z,4.70
2019-04-19T11:56:53.752Z,4.40
2019-04-19T11:57:46.342Z,4.90
2019-04-19T11:58:46.707Z,4.90
2019-04-19T11:59:49.417Z,7.60
2019-04-19T12:00:45.731Z,5.30
2019-04-19T12:01:46.031Z,5.00
2019-04-19T12:02:46.230Z,3.80
2019-04-19T12:03:46.194Z,5.70
2019-04-19T12:04:46.617Z,4.50
2019-04-19T12:05:46.287Z,4.00
2019-04-19T12:06:45.671Z,4.40
2019-04-19T12:07:46.471Z,4.40
2019-04-19T12:08:46.421Z,4.40
2019-04-19T12:09:45.648Z,6.10
2019-04-19T12:10:46.457Z,5.30
2019-04-19T12:11:46.429Z,5.50
2019-04-19T12:12:45.620Z,5.90
2019-04-19T12:13:46.421Z,6.20
2019-04-19T12:14:46.045Z,4.90
2019-04-19T12:15:48.459Z,4.50
2019-04-19T12:16:47.169Z,4.60
2019-04-19T12:17:46.182Z,4.50
2019-04-19T12:18:46.838Z,4.30
2019-04-19T12:19:52.018Z,5.90
2019-04-19T12:20:45.551Z,5.80
2019-04-19T12:21:45.545Z,5.40
2019-04-19T12:22:46.148Z,4.60
2019-04-19T12:23:46.667Z,6.80
2019-04-19T12:24:46.746Z,4.90
2019-04-19T12:25:45.827Z,5.90
2019-04-19T12:26:45.497Z,5.70
2019-04-19T12:27:45.685Z,5.60
2019-04-19T12:28:45.814Z,5.60
2019-04-19T12:29:48.690Z,5.60
2019-04-19T12:30:50.569Z,6.20
2019-04-19T12:31:45.580Z,4.80
2019-04-19T12:32:45.625Z,5.90
2019-04-19T12:33:45.439Z,4.50
2019-04-19T12:34:46.634Z,4.50
2019-04-19T12:35:45.503Z,6.00
2019-04-19T12:36:45.415Z,5.00
2019-04-19T12:37:45.405Z,5.00
2019-04-19T12:38:46.516Z,7.20
2019-04-19T12:39:45.387Z,4.50
2019-04-19T12:40:45.667Z,5.70
2019-04-19T12:41:46.151Z,5.20
2019-04-19T12:42:46.659Z,5.60
2019-04-19T12:43:45.894Z,5.80
2019-04-19T12:44:46.062Z,5.50
2019-04-19T12:45:47.792Z,5.30
2019-04-19T12:46:46.396Z,6.40
2019-04-19T12:47:46.980Z,5.70
2019-04-19T12:48:45.731Z,4.90
2019-04-19T12:49:55.484Z,6.60
2019-04-19T12:50:45.295Z,4.60
2019-04-19T12:51:46.470Z,7.40
2019-04-19T12:52:46.307Z,6.80
2019-04-19T12:53:46.881Z,5.60
2019-04-19T12:54:45.858Z,5.30
2019-04-19T12:55:46.137Z,4.80
2019-04-19T12:56:45.255Z,4.90
2019-04-19T12:57:45.821Z,5.30
2019-04-19T12:58:46.127Z,5.00
2019-04-19T12:59:45.313Z,4.80
2019-04-19T13:00:45.910Z,6.70
2019-04-19T13:01:45.976Z,4.30
2019-04-19T13:02:45.247Z,5.30
2019-04-19T13:03:46.400Z,4.70
2019-04-19T13:04:46.206Z,4.90
2019-04-19T13:05:45.789Z,4.70
2019-04-19T13:06:46.307Z,5.10
2019-04-19T13:07:45.301Z,5.30
2019-04-19T13:08:45.362Z,5.70
2019-04-19T13:09:45.141Z,5.50
2019-04-19T13:10:45.131Z,4.80
2019-04-19T13:11:45.142Z,4.90
2019-04-19T13:12:45.467Z,4.80
2019-04-19T13:13:45.964Z,6.80
2019-04-19T13:14:45.889Z,5.90
2019-04-19T13:15:46.119Z,5.90
2019-04-19T13:16:46.202Z,6.60
2019-04-19T13:17:46.385Z,4.80
2019-04-19T13:18:45.882Z,5.20
2019-04-19T13:19:45.161Z,5.00
2019-04-19T13:20:46.080Z,4.90
2019-04-19T13:21:45.051Z,5.00
2019-04-19T13:22:46.267Z,5.30
2019-04-19T13:23:46.428Z,4.40
2019-04-19T13:24:45.022Z,4.80
2019-04-19T13:25:45.014Z,4.90
2019-04-19T13:26:45.261Z,5.00
2019-04-19T13:27:50.638Z,5.40
2019-04-19T13:28:44.990Z,4.90
2019-04-19T13:29:45.958Z,4.60